EDT,Max TemperatureF,Mean TemperatureF,Min TemperatureF,Max Dew PointF,MeanDew PointF,Min DewpointF,Max Humidity, Mean Humidity, Min Humidity, Max Sea Level PressureIn, Mean Sea Level PressureIn, Min Sea Level PressureIn, Max VisibilityMiles, Mean VisibilityMiles, Min VisibilityMiles, Max Wind SpeedMPH, Mean Wind SpeedMPH, Max Gust SpeedMPH,PrecipitationIn, CloudCover, Events, WindDirDegrees
2013-10-1,81,67,52,59,55,49,93,68,42,29.99,29.95,29.89,10,10,10,14,4,18,0.00,0,,272
2013-10-2,83,70,56,63,59,55,93,70,46,30.00,29.94,29.89,10,10,7,16,5,22,0.00,0,,277
2013-10-3,75,65,54,61,55,46,93,66,38,30.12,30.07,30.01,10,10,8,14,4,16,0.00,0,,227
2013-10-4,82,72,61,66,62,57,90,74,58,30.07,30.04,29.98,10,8,4,14,5,17,0.02,3,Rain,61
2013-10-5,71,67,63,64,61,58,93,85,76,30.11,30.08,30.04,10,9,6,9,5,12,T,6,Rain,107
2013-10-6,67,65,63,64,63,60,100,94,87,30.15,30.11,30.07,10,6,1,18,12,24,0.03,8,Rain,102
2013-10-7,78,69,60,70,66,54,100,86,72,30.06,29.92,29.81,10,7,1,28,11,36,0.21,7,Rain,180
2013-10-8,68,60,51,53,45,40,86,61,35,30.34,30.20,29.99,10,10,10,18,7,26,0.00,0,,334
2013-10-9,64,57,50,50,45,41,77,65,52,30.43,30.37,30.32,10,10,10,18,11,24,0.00,0,,52
2013-10-10,63,58,52,52,49,45,83,75,67,30.32,30.22,30.11,10,10,10,17,12,23,T,5,Rain,29
2013-10-11,71,64,57,60,54,47,80,66,52,30.11,30.08,30.05,10,10,10,16,11,21,0.00,7,,39
2013-10-12,71,64,57,59,50,42,84,68,51,30.33,30.20,30.10,10,10,10,25,14,32,0.00,5,,58
2013-10-13,64,58,52,51,49,48,83,72,60,30.41,30.37,30.32,10,10,10,12,11,14,0.00,4,,65
2013-10-14,61,55,48,50,47,45,93,77,60,30.38,30.33,30.27,10,10,10,10,4,13,0.00,0,,51
2013-10-15,67,58,49,53,48,41,93,67,40,30.27,30.21,30.14,10,10,10,12,6,15,0.00,1,,56
2013-10-16,64,59,53,61,52,46,90,75,60,30.12,30.03,29.93,10,10,10,10,5,14,0.00,6,,66
2013-10-17,72,67,62,62,61,59,93,80,66,29.92,29.85,29.71,10,8,6,18,10,23,0.02,6,Rain,218
2013-10-18,70,61,51,63,49,41,93,65,37,29.97,29.80,29.66,10,10,10,21,10,26,T,2,,268
2013-10-19,65,55,44,56,46,40,86,65,44,29.99,29.90,29.75,10,10,10,15,5,20,T,3,Rain,196
2013-10-20,65,57,48,57,41,33,83,59,34,30.06,29.89,29.73,10,10,10,18,9,25,0.00,1,,284
2013-10-21,66,54,42,49,41,37,89,63,37,30.15,30.08,29.99,10,10,7,21,8,26,0.00,0,,211
2013-10-22,69,59,48,50,48,40,77,63,48,29.99,29.83,29.75,10,10,10,16,9,21,0.00,2,,241
2013-10-23,52,47,41,40,36,31,86,65,44,29.82,29.73,29.63,10,10,10,13,5,35,T,4,Rain,352
2013-10-24,57,49,40,36,30,24,79,55,30,29.97,29.86,29.73,10,10,10,18,9,26,0.00,1,,270
2013-10-25,53,46,38,32,29,26,76,56,35,30.21,30.09,29.98,10,10,10,22,7,30,0.00,2,,296
2013-10-26,56,46,36,35,33,29,85,62,38,30.20,30.08,29.90,10,10,10,25,13,32,T,1,,244
2013-10-27,60,51,42,35,31,27,60,45,30,30.11,29.95,29.85,10,10,10,20,9,29,T,2,Rain,279
2013-10-28,63,49,35,36,33,31,79,55,30,30.34,30.20,30.12,10,10,8,16,7,21,0.00,0,,288
2013-10-29,51,46,40,33,29,25,70,55,39,30.44,30.39,30.35,10,10,10,14,6,17,0.00,5,,18
2013-10-30,57,49,41,48,41,30,86,74,61,30.35,30.26,30.20,10,10,10,8,2,9,0.00,5,,357
2013-10-31,65,55,44,60,52,42,93,86,78,30.24,30.09,29.84,10,8,4,23,8,28,0.04,7,Rain,184